sensor_id;sensor_type;location;lat;lon;timestamp;temperature;humidity
78550;DHT22;68091;52.130;5.570;2023-03-25T00:01:03;9.60;91.30
78550;DHT22;68091;52.130;5.570;2023-03-25T00:03:33;9.60;91.40
78550;DHT22;68091;52.130;5.570;2023-03-25T00:06:05;9.60;91.20
78550;DHT22;68091;52.130;5.570;2023-03-25T00:08:31;9.60;91.20
78550;DHT22;68091;52.130;5.570;2023-03-25T00:10:59;9.60;91.10
78550;DHT22;68091;52.130;5.570;2023-03-25T00:13:25;9.60;91.00
78550;DHT22;68091;52.130;5.570;2023-03-25T00:15:52;9.60;90.90
78550;DHT22;68091;52.130;5.570;2023-03-25T00:18:27;9.60;91.10
78550;DHT22;68091;52.130;5.570;2023-03-25T00:21:01;9.60;91.30
78550;DHT22;68091;52.130;5.570;2023-03-25T00:23:29;9.50;91.20
78550;DHT22;68091;52.130;5.570;2023-03-25T00:25:55;9.60;91.40
78550;DHT22;68091;52.130;5.570;2023-03-25T00:28:29;9.60;91.20
78550;DHT22;68091;52.130;5.570;2023-03-25T00:30:58;9.50;91.20
78550;DHT22;68091;52.130;5.570;2023-03-25T00:33:26;9.60;91.20
78550;DHT22;68091;52.130;5.570;2023-03-25T00:35:55;9.50;91.20
78550;DHT22;68091;52.130;5.570;2023-03-25T00:38:28;9.50;91.40
78550;DHT22;68091;52.130;5.570;2023-03-25T00:43:37;9.50;91.10
78550;DHT22;68091;52.130;5.570;2023-03-25T00:46:03;9.60;91.20
78550;DHT22;68091;52.130;5.570;2023-03-25T00:48:28;9.60;91.10
78550;DHT22;68091;52.130;5.570;2023-03-25T00:50:54;9.60;91.20
78550;DHT22;68091;52.130;5.570;2023-03-25T00:53:20;9.50;91.20
78550;DHT22;68091;52.130;5.570;2023-03-25T00:55:46;9.50;91.20
78550;DHT22;68091;52.130;5.570;2023-03-25T00:58:12;9.50;91.20
78550;DHT22;68091;52.130;5.570;2023-03-25T01:00:37;9.60;91.10
78550;DHT22;68091;52.130;5.570;2023-03-25T01:03:03;9.50;91.00
78550;DHT22;68091;52.130;5.570;2023-03-25T01:05:29;9.50;91.20
78550;DHT22;68091;52.130;5.570;2023-03-25T01:07:55;9.50;91.00
78550;DHT22;68091;52.130;5.570;2023-03-25T01:10:21;9.50;91.10
78550;DHT22;68091;52.130;5.570;2023-03-25T01:12:47;9.50;91.10
78550;DHT22;68091;52.130;5.570;2023-03-25T01:15:13;9.40;90.90
78550;DHT22;68091;52.130;5.570;2023-03-25T01:17:39;9.50;90.80
78550;DHT22;68091;52.130;5.570;2023-03-25T01:20:05;9.50;90.90
78550;DHT22;68091;52.130;5.570;2023-03-25T01:22:33;9.50;90.80
78550;DHT22;68091;52.130;5.570;2023-03-25T01:24:59;9.50;90.90
78550;DHT22;68091;52.130;5.570;2023-03-25T01:27:25;9.40;90.90
78550;DHT22;68091;52.130;5.570;2023-03-25T01:29:50;9.50;90.70
78550;DHT22;68091;52.130;5.570;2023-03-25T01:32:19;9.50;90.60
78550;DHT22;68091;52.130;5.570;2023-03-25T01:34:48;9.50;90.70
78550;DHT22;68091;52.130;5.570;2023-03-25T01:37:14;9.50;90.50
78550;DHT22;68091;52.130;5.570;2023-03-25T01:39:40;9.50;90.70
78550;DHT22;68091;52.130;5.570;2023-03-25T01:42:06;9.50;90.60
78550;DHT22;68091;52.130;5.570;2023-03-25T01:46:59;9.40;91.20
78550;DHT22;68091;52.130;5.570;2023-03-25T01:49:36;9.40;91.70
78550;DHT22;68091;52.130;5.570;2023-03-25T01:52:24;9.30;92.20
78550;DHT22;68091;52.130;5.570;2023-03-25T01:54:53;9.20;92.40
78550;DHT22;68091;52.130;5.570;2023-03-25T01:57:21;9.20;92.40
78550;DHT22;68091;52.130;5.570;2023-03-25T01:59:49;9.10;93.10
78550;DHT22;68091;52.130;5.570;2023-03-25T02:02:19;9.10;93.30
78550;DHT22;68091;52.130;5.570;2023-03-25T02:05:52;9.00;93.60
78550;DHT22;68091;52.130;5.570;2023-03-25T02:07:53;8.90;93.60
78550;DHT22;68091;52.130;5.570;2023-03-25T02:10:25;8.90;93.60
78550;DHT22;68091;52.130;5.570;2023-03-25T02:12:51;9.00;93.50
78550;DHT22;68091;52.130;5.570;2023-03-25T02:15:17;8.90;93.60
78550;DHT22;68091;52.130;5.570;2023-03-25T02:18:09;8.90;93.40
78550;DHT22;68091;52.130;5.570;2023-03-25T02:26:42;8.90;93.40
78550;DHT22;68091;52.130;5.570;2023-03-25T02:32:03;8.80;94.50
78550;DHT22;68091;52.130;5.570;2023-03-25T02:34:56;8.70;94.80
78550;DHT22;68091;52.130;5.570;2023-03-25T02:40:02;8.60;96.00
78550;DHT22;68091;52.130;5.570;2023-03-25T02:47:49;8.40;96.60
78550;DHT22;68091;52.130;5.570;2023-03-25T02:50:24;8.40;96.30
78550;DHT22;68091;52.130;5.570;2023-03-25T02:52:56;8.40;96.40
78550;DHT22;68091;52.130;5.570;2023-03-25T02:55:24;8.50;96.30
78550;DHT22;68091;52.130;5.570;2023-03-25T02:57:55;8.50;96.00
78550;DHT22;68091;52.130;5.570;2023-03-25T03:00:28;8.50;96.00
78550;DHT22;68091;52.130;5.570;2023-03-25T03:02:57;8.50;95.90
78550;DHT22;68091;52.130;5.570;2023-03-25T03:05:29;8.50;96.00
78550;DHT22;68091;52.130;5.570;2023-03-25T03:08:13;8.50;96.00
78550;DHT22;68091;52.130;5.570;2023-03-25T03:11:20;8.60;96.10
78550;DHT22;68091;52.130;5.570;2023-03-25T03:19:39;8.50;96.20
78550;DHT22;68091;52.130;5.570;2023-03-25T03:30:39;8.50;96.10
78550;DHT22;68091;52.130;5.570;2023-03-25T03:36:03;8.50;96.30
78550;DHT22;68091;52.130;5.570;2023-03-25T03:38:39;8.50;96.40
78550;DHT22;68091;52.130;5.570;2023-03-25T03:41:23;8.50;96.40
78550;DHT22;68091;52.130;5.570;2023-03-25T03:43:56;8.50;96.50
78550;DHT22;68091;52.130;5.570;2023-03-25T03:46:27;8.50;96.30
78550;DHT22;68091;52.130;5.570;2023-03-25T03:48:57;8.50;96.50
78550;DHT22;68091;52.130;5.570;2023-03-25T03:51:31;8.50;96.50
78550;DHT22;68091;52.130;5.570;2023-03-25T03:54:04;8.50;96.60
78550;DHT22;68091;52.130;5.570;2023-03-25T03:57:25;8.50;96.70
78550;DHT22;68091;52.130;5.570;2023-03-25T04:02:42;8.50;96.60
78550;DHT22;68091;52.130;5.570;2023-03-25T04:05:14;8.50;96.40
78550;DHT22;68091;52.130;5.570;2023-03-25T04:10:21;8.50;96.40
78550;DHT22;68091;52.130;5.570;2023-03-25T04:12:55;8.60;96.30
78550;DHT22;68091;52.130;5.570;2023-03-25T04:15:22;8.60;96.20
78550;DHT22;68091;52.130;5.570;2023-03-25T04:17:48;8.60;96.20
78550;DHT22;68091;52.130;5.570;2023-03-25T04:20:17;8.60;96.30
78550;DHT22;68091;52.130;5.570;2023-03-25T04:22:48;8.60;96.10
78550;DHT22;68091;52.130;5.570;2023-03-25T04:25:16;8.60;96.30
78550;DHT22;68091;52.130;5.570;2023-03-25T04:27:42;8.60;96.20
78550;DHT22;68091;52.130;5.570;2023-03-25T04:30:14;8.60;96.30
78550;DHT22;68091;52.130;5.570;2023-03-25T04:32:42;8.60;96.40
78550;DHT22;68091;52.130;5.570;2023-03-25T04:35:15;8.60;96.10
78550;DHT22;68091;52.130;5.570;2023-03-25T04:37:43;8.60;96.40
78550;DHT22;68091;52.130;5.570;2023-03-25T04:40:14;8.50;96.60
78550;DHT22;68091;52.130;5.570;2023-03-25T04:42:46;8.50;96.70
78550;DHT22;68091;52.130;5.570;2023-03-25T04:45:13;8.40;97.10
78550;DHT22;68091;52.130;5.570;2023-03-25T04:47:42;8.40;97.20
78550;DHT22;68091;52.130;5.570;2023-03-25T04:50:40;8.40;97.30
78550;DHT22;68091;52.130;5.570;2023-03-25T04:53:08;8.50;97.40
78550;DHT22;68091;52.130;5.570;2023-03-25T04:55:34;8.40;97.30
78550;DHT22;68091;52.130;5.570;2023-03-25T04:58:00;8.40;97.20
78550;DHT22;68091;52.130;5.570;2023-03-25T05:00:26;8.40;97.00
78550;DHT22;68091;52.130;5.570;2023-03-25T05:02:54;8.40;96.90
78550;DHT22;68091;52.130;5.570;2023-03-25T05:05:24;8.40;96.80
78550;DHT22;68091;52.130;5.570;2023-03-25T05:07:54;8.40;96.80
78550;DHT22;68091;52.130;5.570;2023-03-25T05:10:23;8.50;96.80
78550;DHT22;68091;52.130;5.570;2023-03-25T05:12:50;8.40;96.80
78550;DHT22;68091;52.130;5.570;2023-03-25T05:15:22;8.40;96.90
78550;DHT22;68091;52.130;5.570;2023-03-25T05:17:48;8.40;96.80
78550;DHT22;68091;52.130;5.570;2023-03-25T05:20:14;8.40;96.60
78550;DHT22;68091;52.130;5.570;2023-03-25T05:22:40;8.40;96.60
78550;DHT22;68091;52.130;5.570;2023-03-25T05:25:08;8.40;96.50
78550;DHT22;68091;52.130;5.570;2023-03-25T05:27:36;8.40;96.50
78550;DHT22;68091;52.130;5.570;2023-03-25T05:30:02;8.40;96.70
78550;DHT22;68091;52.130;5.570;2023-03-25T05:32:28;8.30;97.00
78550;DHT22;68091;52.130;5.570;2023-03-25T05:34:58;8.20;97.10
78550;DHT22;68091;52.130;5.570;2023-03-25T05:37:24;8.20;97.10
78550;DHT22;68091;52.130;5.570;2023-03-25T05:39:49;8.20;97.10
78550;DHT22;68091;52.130;5.570;2023-03-25T05:42:16;8.20;96.90
78550;DHT22;68091;52.130;5.570;2023-03-25T05:44:42;8.20;96.90
78550;DHT22;68091;52.130;5.570;2023-03-25T05:47:19;8.20;96.90
78550;DHT22;68091;52.130;5.570;2023-03-25T05:49:50;8.10;96.90
78550;DHT22;68091;52.130;5.570;2023-03-25T05:52:16;8.10;96.80
78550;DHT22;68091;52.130;5.570;2023-03-25T05:54:43;8.10;96.80
78550;DHT22;68091;52.130;5.570;2023-03-25T05:57:10;8.10;96.70
78550;DHT22;68091;52.130;5.570;2023-03-25T05:59:36;8.10;96.60
78550;DHT22;68091;52.130;5.570;2023-03-25T06:02:13;8.10;96.70
78550;DHT22;68091;52.130;5.570;2023-03-25T06:04:39;8.20;96.60
78550;DHT22;68091;52.130;5.570;2023-03-25T06:07:12;8.20;96.50
78550;DHT22;68091;52.130;5.570;2023-03-25T06:09:48;8.40;96.30
78550;DHT22;68091;52.130;5.570;2023-03-25T06:12:18;8.30;96.30
78550;DHT22;68091;52.130;5.570;2023-03-25T06:14:45;8.20;96.40
78550;DHT22;68091;52.130;5.570;2023-03-25T06:17:12;8.30;96.20
78550;DHT22;68091;52.130;5.570;2023-03-25T06:19:38;8.30;96.20
78550;DHT22;68091;52.130;5.570;2023-03-25T06:22:07;8.30;96.20
78550;DHT22;68091;52.130;5.570;2023-03-25T06:24:37;8.30;96.30
78550;DHT22;68091;52.130;5.570;2023-03-25T06:27:04;8.40;96.30
78550;DHT22;68091;52.130;5.570;2023-03-25T06:29:34;8.40;96.20
78550;DHT22;68091;52.130;5.570;2023-03-25T06:32:07;8.40;96.20
78550;DHT22;68091;52.130;5.570;2023-03-25T06:34:36;8.40;96.10
78550;DHT22;68091;52.130;5.570;2023-03-25T06:37:08;8.60;95.80
78550;DHT22;68091;52.130;5.570;2023-03-25T06:39:34;8.60;95.80
78550;DHT22;68091;52.130;5.570;2023-03-25T06:42:03;8.70;95.50
78550;DHT22;68091;52.130;5.570;2023-03-25T06:44:34;8.80;95.30
78550;DHT22;68091;52.130;5.570;2023-03-25T06:47:07;8.80;95.20
78550;DHT22;68091;52.130;5.570;2023-03-25T06:49:41;8.80;95.20
78550;DHT22;68091;52.130;5.570;2023-03-25T06:52:07;8.80;95.00
78550;DHT22;68091;52.130;5.570;2023-03-25T06:54:36;8.80;95.10
78550;DHT22;68091;52.130;5.570;2023-03-25T06:57:08;8.70;95.20
78550;DHT22;68091;52.130;5.570;2023-03-25T06:59:41;8.60;95.60
78550;DHT22;68091;52.130;5.570;2023-03-25T07:02:06;8.60;95.80
78550;DHT22;68091;52.130;5.570;2023-03-25T07:04:32;8.50;96.10
78550;DHT22;68091;52.130;5.570;2023-03-25T07:06:58;8.40;96.60
78550;DHT22;68091;52.130;5.570;2023-03-25T07:09:24;8.20;96.50
78550;DHT22;68091;52.130;5.570;2023-03-25T07:11:50;8.30;96.70
78550;DHT22;68091;52.130;5.570;2023-03-25T07:14:15;8.30;96.80
78550;DHT22;68091;52.130;5.570;2023-03-25T07:16:41;8.30;96.80
78550;DHT22;68091;52.130;5.570;2023-03-25T07:19:07;8.30;97.30
78550;DHT22;68091;52.130;5.570;2023-03-25T07:21:33;8.20;97.50
78550;DHT22;68091;52.130;5.570;2023-03-25T07:23:58;8.30;98.00
78550;DHT22;68091;52.130;5.570;2023-03-25T07:26:24;8.10;98.30
78550;DHT22;68091;52.130;5.570;2023-03-25T07:28:50;8.10;98.30
78550;DHT22;68091;52.130;5.570;2023-03-25T07:31:16;8.10;98.30
78550;DHT22;68091;52.130;5.570;2023-03-25T07:33:42;8.10;98.30
78550;DHT22;68091;52.130;5.570;2023-03-25T07:36:10;8.20;98.30
78550;DHT22;68091;52.130;5.570;2023-03-25T07:38:36;8.20;98.30
78550;DHT22;68091;52.130;5.570;2023-03-25T07:41:07;8.20;97.90
78550;DHT22;68091;52.130;5.570;2023-03-25T07:43:33;8.10;98.20
78550;DHT22;68091;52.130;5.570;2023-03-25T07:45:58;8.30;98.20
78550;DHT22;68091;52.130;5.570;2023-03-25T07:48:24;8.30;98.30
78550;DHT22;68091;52.130;5.570;2023-03-25T07:50:51;8.30;97.80
78550;DHT22;68091;52.130;5.570;2023-03-25T07:53:17;8.40;98.00
78550;DHT22;68091;52.130;5.570;2023-03-25T07:55:43;8.40;98.00
78550;DHT22;68091;52.130;5.570;2023-03-25T07:58:11;8.40;97.80
78550;DHT22;68091;52.130;5.570;2023-03-25T08:00:37;8.40;97.90
78550;DHT22;68091;52.130;5.570;2023-03-25T08:03:06;8.50;97.70
78550;DHT22;68091;52.130;5.570;2023-03-25T08:05:31;8.60;97.60
78550;DHT22;68091;52.130;5.570;2023-03-25T08:07:57;8.60;97.50
78550;DHT22;68091;52.130;5.570;2023-03-25T08:10:26;8.50;97.70
78550;DHT22;68091;52.130;5.570;2023-03-25T08:12:54;8.50;97.70
78550;DHT22;68091;52.130;5.570;2023-03-25T08:15:20;8.60;97.70
78550;DHT22;68091;52.130;5.570;2023-03-25T08:17:49;8.60;97.30
78550;DHT22;68091;52.130;5.570;2023-03-25T08:20:16;8.60;97.50
78550;DHT22;68091;52.130;5.570;2023-03-25T08:22:45;8.60;97.60
78550;DHT22;68091;52.130;5.570;2023-03-25T08:25:12;8.60;97.70
78550;DHT22;68091;52.130;5.570;2023-03-25T08:27:39;8.50;97.90
78550;DHT22;68091;52.130;5.570;2023-03-25T08:30:05;8.50;97.90
78550;DHT22;68091;52.130;5.570;2023-03-25T08:32:35;8.60;97.70
78550;DHT22;68091;52.130;5.570;2023-03-25T08:35:04;8.60;97.80
78550;DHT22;68091;52.130;5.570;2023-03-25T08:37:30;8.60;97.60
78550;DHT22;68091;52.130;5.570;2023-03-25T08:40:01;8.60;97.80
78550;DHT22;68091;52.130;5.570;2023-03-25T08:42:27;8.60;97.90
78550;DHT22;68091;52.130;5.570;2023-03-25T08:44:52;8.70;98.00
78550;DHT22;68091;52.130;5.570;2023-03-25T08:47:21;8.90;97.50
78550;DHT22;68091;52.130;5.570;2023-03-25T08:49:47;9.00;97.00
78550;DHT22;68091;52.130;5.570;2023-03-25T08:52:13;9.10;96.70
78550;DHT22;68091;52.130;5.570;2023-03-25T08:54:49;9.00;97.20
78550;DHT22;68091;52.130;5.570;2023-03-25T08:57:21;9.00;97.20
78550;DHT22;68091;52.130;5.570;2023-03-25T08:59:47;9.00;97.20
78550;DHT22;68091;52.130;5.570;2023-03-25T09:02:13;9.00;97.20
78550;DHT22;68091;52.130;5.570;2023-03-25T09:04:39;8.90;97.20
78550;DHT22;68091;52.130;5.570;2023-03-25T09:07:06;9.30;97.30
78550;DHT22;68091;52.130;5.570;2023-03-25T09:09:46;9.40;96.70
78550;DHT22;68091;52.130;5.570;2023-03-25T09:12:12;9.40;96.00
78550;DHT22;68091;52.130;5.570;2023-03-25T09:14:38;9.50;96.50
78550;DHT22;68091;52.130;5.570;2023-03-25T09:17:04;9.80;96.50
78550;DHT22;68091;52.130;5.570;2023-03-25T09:19:34;9.80;95.70
78550;DHT22;68091;52.130;5.570;2023-03-25T09:22:03;9.90;95.80
78550;DHT22;68091;52.130;5.570;2023-03-25T09:24:28;10.00;95.60
78550;DHT22;68091;52.130;5.570;2023-03-25T09:27:01;10.00;95.50
78550;DHT22;68091;52.130;5.570;2023-03-25T09:29:27;10.20;95.70
78550;DHT22;68091;52.130;5.570;2023-03-25T09:31:54;10.20;95.20
78550;DHT22;68091;52.130;5.570;2023-03-25T09:34:23;10.10;95.20
78550;DHT22;68091;52.130;5.570;2023-03-25T09:36:48;10.10;95.20
78550;DHT22;68091;52.130;5.570;2023-03-25T09:39:17;10.00;95.70
78550;DHT22;68091;52.130;5.570;2023-03-25T09:44:32;10.10;95.80
78550;DHT22;68091;52.130;5.570;2023-03-25T09:47:00;10.10;95.00
78550;DHT22;68091;52.130;5.570;2023-03-25T09:49:39;10.10;95.40
78550;DHT22;68091;52.130;5.570;2023-03-25T09:52:17;10.40;94.80
78550;DHT22;68091;52.130;5.570;2023-03-25T09:54:49;10.70;94.70
78550;DHT22;68091;52.130;5.570;2023-03-25T09:57:20;10.60;94.20
78550;DHT22;68091;52.130;5.570;2023-03-25T09:59:49;10.40;94.30
78550;DHT22;68091;52.130;5.570;2023-03-25T10:08:11;10.30;94.60
78550;DHT22;68091;52.130;5.570;2023-03-25T10:10:51;10.20;94.00
78550;DHT22;68091;52.130;5.570;2023-03-25T10:19:33;10.30;95.10
78550;DHT22;68091;52.130;5.570;2023-03-25T10:22:08;10.30;95.40
78550;DHT22;68091;52.130;5.570;2023-03-25T10:24:52;10.30;94.80
78550;DHT22;68091;52.130;5.570;2023-03-25T10:27:39;10.50;94.60
78550;DHT22;68091;52.130;5.570;2023-03-25T10:30:14;10.60;93.90
78550;DHT22;68091;52.130;5.570;2023-03-25T10:32:43;10.60;93.90
78550;DHT22;68091;52.130;5.570;2023-03-25T10:35:24;10.50;93.70
78550;DHT22;68091;52.130;5.570;2023-03-25T10:37:57;10.50;93.80
78550;DHT22;68091;52.130;5.570;2023-03-25T10:40:32;10.50;93.60
78550;DHT22;68091;52.130;5.570;2023-03-25T10:43:41;10.40;93.60
78550;DHT22;68091;52.130;5.570;2023-03-25T10:46:28;10.20;93.20
78550;DHT22;68091;52.130;5.570;2023-03-25T10:48:55;10.30;93.30
78550;DHT22;68091;52.130;5.570;2023-03-25T10:51:33;10.30;93.40
78550;DHT22;68091;52.130;5.570;2023-03-25T10:53:59;11.10;93.00
78550;DHT22;68091;52.130;5.570;2023-03-25T10:56:39;10.60;92.60
78550;DHT22;68091;52.130;5.570;2023-03-25T10:59:22;10.70;92.40
78550;DHT22;68091;52.130;5.570;2023-03-25T11:01:53;10.70;91.70
78550;DHT22;68091;52.130;5.570;2023-03-25T11:04:21;10.70;92.00
78550;DHT22;68091;52.130;5.570;2023-03-25T11:06:54;10.80;91.70
78550;DHT22;68091;52.130;5.570;2023-03-25T11:09:29;10.70;91.50
78550;DHT22;68091;52.130;5.570;2023-03-25T11:12:01;10.60;92.30
78550;DHT22;68091;52.130;5.570;2023-03-25T11:14:29;10.20;93.30
78550;DHT22;68091;52.130;5.570;2023-03-25T11:17:10;10.10;94.50
78550;DHT22;68091;52.130;5.570;2023-03-25T11:19:54;10.20;94.30
78550;DHT22;68091;52.130;5.570;2023-03-25T11:22:26;10.30;93.90
78550;DHT22;68091;52.130;5.570;2023-03-25T11:25:02;10.50;93.30
78550;DHT22;68091;52.130;5.570;2023-03-25T11:27:29;10.50;92.90
78550;DHT22;68091;52.130;5.570;2023-03-25T11:30:04;10.60;93.00
78550;DHT22;68091;52.130;5.570;2023-03-25T11:32:37;10.80;92.80
78550;DHT22;68091;52.130;5.570;2023-03-25T11:35:24;10.70;92.60
78550;DHT22;68091;52.130;5.570;2023-03-25T11:37:58;10.70;92.30
78550;DHT22;68091;52.130;5.570;2023-03-25T11:40:28;10.80;92.30
78550;DHT22;68091;52.130;5.570;2023-03-25T11:42:57;10.80;92.40
78550;DHT22;68091;52.130;5.570;2023-03-25T11:45:44;10.70;92.60
78550;DHT22;68091;52.130;5.570;2023-03-25T11:48:19;10.50;92.90
78550;DHT22;68091;52.130;5.570;2023-03-25T11:50:58;10.60;93.00
78550;DHT22;68091;52.130;5.570;2023-03-25T11:53:26;10.60;92.40
78550;DHT22;68091;52.130;5.570;2023-03-25T11:55:55;10.70;91.90
78550;DHT22;68091;52.130;5.570;2023-03-25T11:58:29;10.80;92.10
78550;DHT22;68091;52.130;5.570;2023-03-25T12:01:27;10.90;91.70
78550;DHT22;68091;52.130;5.570;2023-03-25T12:09:25;10.90;91.50
78550;DHT22;68091;52.130;5.570;2023-03-25T12:20:26;11.40;91.20
78550;DHT22;68091;52.130;5.570;2023-03-25T12:23:02;11.40;90.40
78550;DHT22;68091;52.130;5.570;2023-03-25T12:34:37;11.60;89.00
78550;DHT22;68091;52.130;5.570;2023-03-25T12:37:18;11.90;89.80
78550;DHT22;68091;52.130;5.570;2023-03-25T12:48:05;12.80;84.70
78550;DHT22;68091;52.130;5.570;2023-03-25T12:50:36;12.70;83.40
78550;DHT22;68091;52.130;5.570;2023-03-25T13:02:10;12.10;82.50
78550;DHT22;68091;52.130;5.570;2023-03-25T13:07:37;11.90;82.60
78550;DHT22;68091;52.130;5.570;2023-03-25T13:13:03;12.50;81.90
78550;DHT22;68091;52.130;5.570;2023-03-25T13:15:49;12.60;82.10
78550;DHT22;68091;52.130;5.570;2023-03-25T13:21:00;13.20;80.60
78550;DHT22;68091;52.130;5.570;2023-03-25T13:23:28;13.40;79.80
78550;DHT22;68091;52.130;5.570;2023-03-25T13:26:07;13.30;78.70
78550;DHT22;68091;52.130;5.570;2023-03-25T13:28:42;13.40;77.00
78550;DHT22;68091;52.130;5.570;2023-03-25T13:31:25;13.50;75.90
78550;DHT22;68091;52.130;5.570;2023-03-25T13:36:42;13.30;76.30
78550;DHT22;68091;52.130;5.570;2023-03-25T13:39:16;13.10;75.80
78550;DHT22;68091;52.130;5.570;2023-03-25T13:41:49;12.80;77.80
78550;DHT22;68091;52.130;5.570;2023-03-25T13:44:25;12.70;78.50
78550;DHT22;68091;52.130;5.570;2023-03-25T13:47:12;12.80;80.30
78550;DHT22;68091;52.130;5.570;2023-03-25T13:49:52;13.40;79.70
78550;DHT22;68091;52.130;5.570;2023-03-25T13:52:19;14.00;77.10
78550;DHT22;68091;52.130;5.570;2023-03-25T13:54:58;13.60;76.50
78550;DHT22;68091;52.130;5.570;2023-03-25T14:01:07;13.30;77.00
78550;DHT22;68091;52.130;5.570;2023-03-25T14:12:08;12.90;78.20
78550;DHT22;68091;52.130;5.570;2023-03-25T14:14:40;12.70;79.00
78550;DHT22;68091;52.130;5.570;2023-03-25T14:17:08;12.40;80.30
78550;DHT22;68091;52.130;5.570;2023-03-25T14:19:38;12.00;87.00
78550;DHT22;68091;52.130;5.570;2023-03-25T14:22:21;11.40;88.90
78550;DHT22;68091;52.130;5.570;2023-03-25T14:24:51;10.60;91.60
78550;DHT22;68091;52.130;5.570;2023-03-25T14:27:32;10.30;93.00
78550;DHT22;68091;52.130;5.570;2023-03-25T14:30:04;10.10;93.70
78550;DHT22;68091;52.130;5.570;2023-03-25T14:32:35;10.00;94.60
78550;DHT22;68091;52.130;5.570;2023-03-25T14:40:47;10.60;94.00
78550;DHT22;68091;52.130;5.570;2023-03-25T14:43:32;10.70;93.90
78550;DHT22;68091;52.130;5.570;2023-03-25T14:54:01;11.90;92.00
78550;DHT22;68091;52.130;5.570;2023-03-25T14:56:35;12.20;91.50
78550;DHT22;68091;52.130;5.570;2023-03-25T14:59:08;12.40;90.70
78550;DHT22;68091;52.130;5.570;2023-03-25T15:01:36;12.40;90.10
78550;DHT22;68091;52.130;5.570;2023-03-25T15:04:29;12.40;90.00
78550;DHT22;68091;52.130;5.570;2023-03-25T15:06:58;12.50;90.00
78550;DHT22;68091;52.130;5.570;2023-03-25T15:09:29;12.40;85.50
78550;DHT22;68091;52.130;5.570;2023-03-25T15:12:03;11.90;84.70
78550;DHT22;68091;52.130;5.570;2023-03-25T15:14:41;11.60;87.20
78550;DHT22;68091;52.130;5.570;2023-03-25T15:17:48;11.50;85.60
78550;DHT22;68091;52.130;5.570;2023-03-25T15:25:52;11.40;85.90
78550;DHT22;68091;52.130;5.570;2023-03-25T15:39:33;7.70;95.80
78550;DHT22;68091;52.130;5.570;2023-03-25T15:42:22;7.50;97.20
78550;DHT22;68091;52.130;5.570;2023-03-25T15:45:13;7.40;97.80
78550;DHT22;68091;52.130;5.570;2023-03-25T15:53:33;7.80;97.90
78550;DHT22;68091;52.130;5.570;2023-03-25T15:56:12;7.80;97.90
78550;DHT22;68091;52.130;5.570;2023-03-25T15:58:58;7.60;98.20
78550;DHT22;68091;52.130;5.570;2023-03-25T16:01:29;7.30;98.00
78550;DHT22;68091;52.130;5.570;2023-03-25T16:04:14;7.30;98.70
78550;DHT22;68091;52.130;5.570;2023-03-25T16:06:44;7.30;99.40
78550;DHT22;68091;52.130;5.570;2023-03-25T16:09:15;7.50;99.60
78550;DHT22;68091;52.130;5.570;2023-03-25T16:11:44;7.80;99.60
78550;DHT22;68091;52.130;5.570;2023-03-25T16:16:44;8.00;98.80
78550;DHT22;68091;52.130;5.570;2023-03-25T16:19:20;7.90;98.80
78550;DHT22;68091;52.130;5.570;2023-03-25T16:21:48;7.90;99.10
78550;DHT22;68091;52.130;5.570;2023-03-25T16:24:14;7.90;99.20
78550;DHT22;68091;52.130;5.570;2023-03-25T16:26:49;7.90;99.50
78550;DHT22;68091;52.130;5.570;2023-03-25T16:29:26;7.90;99.60
78550;DHT22;68091;52.130;5.570;2023-03-25T16:31:58;7.90;99.70
78550;DHT22;68091;52.130;5.570;2023-03-25T16:34:26;8.00;99.80
78550;DHT22;68091;52.130;5.570;2023-03-25T16:36:53;7.90;99.90
78550;DHT22;68091;52.130;5.570;2023-03-25T16:39:24;8.10;99.80
78550;DHT22;68091;52.130;5.570;2023-03-25T16:41:58;8.00;99.80
78550;DHT22;68091;52.130;5.570;2023-03-25T16:44:25;8.00;99.90
78550;DHT22;68091;52.130;5.570;2023-03-25T16:46:51;8.00;99.90
78550;DHT22;68091;52.130;5.570;2023-03-25T16:49:29;7.90;99.90
78550;DHT22;68091;52.130;5.570;2023-03-25T16:51:56;8.00;99.50
78550;DHT22;68091;52.130;5.570;2023-03-25T16:54:34;8.00;99.70
78550;DHT22;68091;52.130;5.570;2023-03-25T16:57:01;8.00;99.50
78550;DHT22;68091;52.130;5.570;2023-03-25T16:59:36;8.10;99.60
78550;DHT22;68091;52.130;5.570;2023-03-25T17:02:04;8.20;98.80
78550;DHT22;68091;52.130;5.570;2023-03-25T17:04:47;8.20;98.70
78550;DHT22;68091;52.130;5.570;2023-03-25T17:07:27;8.20;99.00
78550;DHT22;68091;52.130;5.570;2023-03-25T17:09:56;8.20;98.90
78550;DHT22;68091;52.130;5.570;2023-03-25T17:12:23;8.20;99.40
78550;DHT22;68091;52.130;5.570;2023-03-25T17:15:04;8.20;98.90
78550;DHT22;68091;52.130;5.570;2023-03-25T17:17:55;8.20;98.90
78550;DHT22;68091;52.130;5.570;2023-03-25T17:20:37;8.30;99.10
78550;DHT22;68091;52.130;5.570;2023-03-25T17:25:59;8.20;99.10
78550;DHT22;68091;52.130;5.570;2023-03-25T17:28:27;8.30;99.20
78550;DHT22;68091;52.130;5.570;2023-03-25T17:30:56;8.20;99.20
78550;DHT22;68091;52.130;5.570;2023-03-25T17:35:55;8.10;99.00
78550;DHT22;68091;52.130;5.570;2023-03-25T17:38:27;8.10;99.10
78550;DHT22;68091;52.130;5.570;2023-03-25T17:41:07;8.00;99.10
78550;DHT22;68091;52.130;5.570;2023-03-25T17:43:45;8.10;99.30
78550;DHT22;68091;52.130;5.570;2023-03-25T17:46:19;8.10;99.30
78550;DHT22;68091;52.130;5.570;2023-03-25T17:48:45;8.10;99.50
78550;DHT22;68091;52.130;5.570;2023-03-25T17:51:12;8.10;99.60
78550;DHT22;68091;52.130;5.570;2023-03-25T17:53:39;8.10;99.40
78550;DHT22;68091;52.130;5.570;2023-03-25T17:56:10;8.30;99.10
78550;DHT22;68091;52.130;5.570;2023-03-25T17:58:36;8.30;99.00
78550;DHT22;68091;52.130;5.570;2023-03-25T18:01:03;8.30;98.90
78550;DHT22;68091;52.130;5.570;2023-03-25T18:03:30;8.40;98.50
78550;DHT22;68091;52.130;5.570;2023-03-25T18:05:57;8.40;99.00
78550;DHT22;68091;52.130;5.570;2023-03-25T18:08:26;8.30;99.30
78550;DHT22;68091;52.130;5.570;2023-03-25T18:10:53;8.30;99.30
78550;DHT22;68091;52.130;5.570;2023-03-25T18:13:21;8.40;98.90
78550;DHT22;68091;52.130;5.570;2023-03-25T18:15:48;8.40;99.00
78550;DHT22;68091;52.130;5.570;2023-03-25T18:18:17;8.30;98.90
78550;DHT22;68091;52.130;5.570;2023-03-25T18:20:44;8.30;98.40
78550;DHT22;68091;52.130;5.570;2023-03-25T18:23:11;8.20;98.50
78550;DHT22;68091;52.130;5.570;2023-03-25T18:25:38;8.20;98.80
78550;DHT22;68091;52.130;5.570;2023-03-25T18:28:04;8.20;98.80
78550;DHT22;68091;52.130;5.570;2023-03-25T18:33:03;8.10;99.50
78550;DHT22;68091;52.130;5.570;2023-03-25T18:35:28;8.20;99.50
78550;DHT22;68091;52.130;5.570;2023-03-25T18:37:54;8.30;99.10
78550;DHT22;68091;52.130;5.570;2023-03-25T18:40:23;8.20;99.10
78550;DHT22;68091;52.130;5.570;2023-03-25T18:42:50;8.20;99.10
78550;DHT22;68091;52.130;5.570;2023-03-25T18:45:21;8.20;99.00
78550;DHT22;68091;52.130;5.570;2023-03-25T18:47:47;8.20;98.70
78550;DHT22;68091;52.130;5.570;2023-03-25T18:52:48;8.20;98.80
78550;DHT22;68091;52.130;5.570;2023-03-25T18:55:14;8.10;99.00
78550;DHT22;68091;52.130;5.570;2023-03-25T18:57:40;8.00;98.90
78550;DHT22;68091;52.130;5.570;2023-03-25T19:00:20;8.00;99.20